sensor_id;sensor_type;location;lat;lon;timestamp;P1;durP1;ratioP1;P2;durP2;ratioP2
21868;SDS011;11099;41.564;23.296;2022-08-26T00:00:05;20.23;;;6.65;;
21868;SDS011;11099;41.564;23.296;2022-08-26T00:02:31;18.02;;;6.72;;
21868;SDS011;11099;41.564;23.296;2022-08-26T00:04:57;22.25;;;6.95;;
21868;SDS011;11099;41.564;23.296;2022-08-26T00:07:23;18.63;;;7.65;;
21868;SDS011;11099;41.564;23.296;2022-08-26T00:09:48;17.42;;;6.18;;
21868;SDS011;11099;41.564;23.296;2022-08-26T00:12:13;12.85;;;6.55;;
21868;SDS011;11099;41.564;23.296;2022-08-26T00:14:39;13.73;;;6.80;;
21868;SDS011;11099;41.564;23.296;2022-08-26T00:17:05;13.85;;;6.63;;
21868;SDS011;11099;41.564;23.296;2022-08-26T00:19:30;12.95;;;6.00;;
21868;SDS011;11099;41.564;23.296;2022-08-26T00:21:56;15.63;;;6.82;;
21868;SDS011;11099;41.564;23.296;2022-08-26T00:24:21;15.15;;;6.38;;
21868;SDS011;11099;41.564;23.296;2022-08-26T00:26:48;21.73;;;6.22;;
21868;SDS011;11099;41.564;23.296;2022-08-26T00:29:14;13.10;;;6.00;;
21868;SDS011;11099;41.564;23.296;2022-08-26T00:31:40;27.92;;;7.00;;
21868;SDS011;11099;41.564;23.296;2022-08-26T00:34:06;18.10;;;7.10;;
21868;SDS011;11099;41.564;23.296;2022-08-26T00:36:32;16.80;;;6.45;;
21868;SDS011;11099;41.564;23.296;2022-08-26T00:38:58;17.38;;;6.13;;
21868;SDS011;11099;41.564;23.296;2022-08-26T00:41:23;21.20;;;6.60;;
21868;SDS011;11099;41.564;23.296;2022-08-26T00:43:49;22.38;;;6.72;;
21868;SDS011;11099;41.564;23.296;2022-08-26T00:46:16;20.60;;;6.00;;
21868;SDS011;11099;41.564;23.296;2022-08-26T00:48:42;24.40;;;7.38;;
21868;SDS011;11099;41.564;23.296;2022-08-26T00:51:15;26.25;;;7.28;;
21868;SDS011;11099;41.564;23.296;2022-08-26T00:53:48;30.88;;;7.65;;
21868;SDS011;11099;41.564;23.296;2022-08-26T00:56:19;19.00;;;6.75;;
21868;SDS011;11099;41.564;23.296;2022-08-26T00:58:50;19.23;;;6.38;;
21868;SDS011;11099;41.564;23.296;2022-08-26T01:01:16;18.77;;;6.07;;
21868;SDS011;11099;41.564;23.296;2022-08-26T01:03:42;19.58;;;6.28;;
21868;SDS011;11099;41.564;23.296;2022-08-26T01:06:10;22.73;;;6.43;;
21868;SDS011;11099;41.564;23.296;2022-08-26T01:08:37;28.58;;;6.68;;
21868;SDS011;11099;41.564;23.296;2022-08-26T01:11:03;21.60;;;6.10;;
21868;SDS011;11099;41.564;23.296;2022-08-26T01:13:29;18.05;;;6.00;;
21868;SDS011;11099;41.564;23.296;2022-08-26T01:15:59;21.50;;;6.65;;
21868;SDS011;11099;41.564;23.296;2022-08-26T01:18:29;16.48;;;6.50;;
21868;SDS011;11099;41.564;23.296;2022-08-26T01:23:36;14.55;;;6.65;;
21868;SDS011;11099;41.564;23.296;2022-08-26T01:26:05;16.83;;;7.10;;
21868;SDS011;11099;41.564;23.296;2022-08-26T01:28:33;22.52;;;6.80;;
21868;SDS011;11099;41.564;23.296;2022-08-26T01:31:01;23.27;;;8.00;;
21868;SDS011;11099;41.564;23.296;2022-08-26T01:36:24;20.00;;;6.63;;
21868;SDS011;11099;41.564;23.296;2022-08-26T01:38:50;17.75;;;6.50;;
21868;SDS011;11099;41.564;23.296;2022-08-26T01:41:15;9.82;;;6.00;;
21868;SDS011;11099;41.564;23.296;2022-08-26T01:43:44;15.35;;;6.72;;
21868;SDS011;11099;41.564;23.296;2022-08-26T01:46:14;25.98;;;6.97;;
21868;SDS011;11099;41.564;23.296;2022-08-26T01:48:42;19.13;;;6.72;;
21868;SDS011;11099;41.564;23.296;2022-08-26T01:51:10;15.63;;;6.75;;
21868;SDS011;11099;41.564;23.296;2022-08-26T01:53:38;14.40;;;6.60;;
21868;SDS011;11099;41.564;23.296;2022-08-26T01:56:05;20.67;;;7.13;;
21868;SDS011;11099;41.564;23.296;2022-08-26T01:58:37;26.08;;;6.78;;
21868;SDS011;11099;41.564;23.296;2022-08-26T02:01:06;15.48;;;5.95;;
21868;SDS011;11099;41.564;23.296;2022-08-26T02:03:34;17.45;;;6.03;;
21868;SDS011;11099;41.564;23.296;2022-08-26T02:06:07;17.67;;;6.68;;
21868;SDS011;11099;41.564;23.296;2022-08-26T02:08:37;15.77;;;6.68;;
21868;SDS011;11099;41.564;23.296;2022-08-26T02:11:08;19.88;;;6.80;;
21868;SDS011;11099;41.564;23.296;2022-08-26T02:13:45;18.63;;;6.65;;
21868;SDS011;11099;41.564;23.296;2022-08-26T02:16:15;17.95;;;6.35;;
21868;SDS011;11099;41.564;23.296;2022-08-26T02:18:44;14.13;;;6.75;;
21868;SDS011;11099;41.564;23.296;2022-08-26T02:21:09;22.83;;;6.82;;
21868;SDS011;11099;41.564;23.296;2022-08-26T02:23:36;20.77;;;6.45;;
21868;SDS011;11099;41.564;23.296;2022-08-26T02:26:09;16.17;;;6.03;;
21868;SDS011;11099;41.564;23.296;2022-08-26T02:28:40;20.05;;;6.68;;
21868;SDS011;11099;41.564;23.296;2022-08-26T02:31:10;21.83;;;6.15;;
21868;SDS011;11099;41.564;23.296;2022-08-26T02:33:36;14.13;;;5.82;;
21868;SDS011;11099;41.564;23.296;2022-08-26T02:36:03;20.08;;;6.53;;
21868;SDS011;11099;41.564;23.296;2022-08-26T02:38:29;23.60;;;7.07;;
21868;SDS011;11099;41.564;23.296;2022-08-26T02:40:55;17.58;;;6.30;;
21868;SDS011;11099;41.564;23.296;2022-08-26T02:43:20;18.83;;;6.03;;
21868;SDS011;11099;41.564;23.296;2022-08-26T02:45:46;20.50;;;5.80;;
21868;SDS011;11099;41.564;23.296;2022-08-26T02:48:13;22.50;;;6.10;;
21868;SDS011;11099;41.564;23.296;2022-08-26T02:53:06;12.70;;;6.32;;
21868;SDS011;11099;41.564;23.296;2022-08-26T02:55:32;16.25;;;7.15;;
21868;SDS011;11099;41.564;23.296;2022-08-26T02:57:58;18.63;;;7.03;;
21868;SDS011;11099;41.564;23.296;2022-08-26T03:00:25;19.20;;;6.43;;
21868;SDS011;11099;41.564;23.296;2022-08-26T03:02:51;21.40;;;6.80;;
21868;SDS011;11099;41.564;23.296;2022-08-26T03:05:16;26.27;;;6.72;;
21868;SDS011;11099;41.564;23.296;2022-08-26T03:07:44;27.52;;;6.63;;
21868;SDS011;11099;41.564;23.296;2022-08-26T03:10:10;19.88;;;6.35;;
21868;SDS011;11099;41.564;23.296;2022-08-26T03:12:37;19.25;;;6.68;;
21868;SDS011;11099;41.564;23.296;2022-08-26T03:15:04;14.80;;;6.07;;
21868;SDS011;11099;41.564;23.296;2022-08-26T03:17:31;25.02;;;7.13;;
21868;SDS011;11099;41.564;23.296;2022-08-26T03:19:57;20.00;;;6.97;;
21868;SDS011;11099;41.564;23.296;2022-08-26T03:22:22;16.85;;;6.18;;
21868;SDS011;11099;41.564;23.296;2022-08-26T03:24:48;22.75;;;7.90;;
21868;SDS011;11099;41.564;23.296;2022-08-26T03:27:14;16.80;;;6.10;;
21868;SDS011;11099;41.564;23.296;2022-08-26T03:29:39;21.85;;;7.20;;
21868;SDS011;11099;41.564;23.296;2022-08-26T03:32:23;20.75;;;5.95;;
21868;SDS011;11099;41.564;23.296;2022-08-26T03:34:49;16.95;;;5.65;;
21868;SDS011;11099;41.564;23.296;2022-08-26T03:37:14;27.85;;;6.70;;
21868;SDS011;11099;41.564;23.296;2022-08-26T03:39:40;17.15;;;5.85;;
21868;SDS011;11099;41.564;23.296;2022-08-26T03:42:05;22.00;;;6.65;;
21868;SDS011;11099;41.564;23.296;2022-08-26T03:44:31;25.65;;;6.15;;
21868;SDS011;11099;41.564;23.296;2022-08-26T03:46:57;18.90;;;6.28;;
21868;SDS011;11099;41.564;23.296;2022-08-26T03:49:22;15.40;;;5.60;;
21868;SDS011;11099;41.564;23.296;2022-08-26T03:51:48;19.92;;;6.43;;
21868;SDS011;11099;41.564;23.296;2022-08-26T03:54:13;19.73;;;6.32;;
21868;SDS011;11099;41.564;23.296;2022-08-26T03:56:39;20.85;;;6.47;;
21868;SDS011;11099;41.564;23.296;2022-08-26T03:59:05;23.63;;;6.78;;
21868;SDS011;11099;41.564;23.296;2022-08-26T04:01:31;18.27;;;6.20;;
21868;SDS011;11099;41.564;23.296;2022-08-26T04:03:56;13.15;;;6.13;;
21868;SDS011;11099;41.564;23.296;2022-08-26T04:06:23;22.13;;;6.30;;
21868;SDS011;11099;41.564;23.296;2022-08-26T04:08:57;24.25;;;6.40;;
21868;SDS011;11099;41.564;23.296;2022-08-26T04:11:27;22.13;;;5.95;;
21868;SDS011;11099;41.564;23.296;2022-08-26T04:13:56;18.98;;;6.22;;
21868;SDS011;11099;41.564;23.296;2022-08-26T04:16:25;22.77;;;6.53;;
21868;SDS011;11099;41.564;23.296;2022-08-26T04:18:53;26.70;;;6.40;;
21868;SDS011;11099;41.564;23.296;2022-08-26T04:21:19;20.58;;;6.53;;
21868;SDS011;11099;41.564;23.296;2022-08-26T04:23:45;16.92;;;6.25;;
21868;SDS011;11099;41.564;23.296;2022-08-26T04:26:11;34.53;;;18.58;;
21868;SDS011;11099;41.564;23.296;2022-08-26T04:28:36;39.08;;;17.10;;
21868;SDS011;11099;41.564;23.296;2022-08-26T04:31:02;29.80;;;11.07;;
21868;SDS011;11099;41.564;23.296;2022-08-26T04:33:27;33.17;;;10.77;;
21868;SDS011;11099;41.564;23.296;2022-08-26T04:36:00;28.70;;;7.95;;
21868;SDS011;11099;41.564;23.296;2022-08-26T04:38:27;24.67;;;6.35;;
21868;SDS011;11099;41.564;23.296;2022-08-26T04:40:53;18.80;;;6.07;;
21868;SDS011;11099;41.564;23.296;2022-08-26T04:43:19;21.25;;;6.78;;
21868;SDS011;11099;41.564;23.296;2022-08-26T04:45:44;19.60;;;5.65;;
21868;SDS011;11099;41.564;23.296;2022-08-26T04:48:10;16.38;;;5.88;;
21868;SDS011;11099;41.564;23.296;2022-08-26T04:50:35;23.40;;;6.28;;
21868;SDS011;11099;41.564;23.296;2022-08-26T04:53:02;14.27;;;6.00;;
21868;SDS011;11099;41.564;23.296;2022-08-26T04:55:28;15.65;;;5.47;;
21868;SDS011;11099;41.564;23.296;2022-08-26T04:57:55;20.33;;;6.78;;
21868;SDS011;11099;41.564;23.296;2022-08-26T05:00:21;17.15;;;6.28;;
21868;SDS011;11099;41.564;23.296;2022-08-26T05:02:47;20.70;;;7.05;;
21868;SDS011;11099;41.564;23.296;2022-08-26T05:05:13;20.65;;;6.10;;
21868;SDS011;11099;41.564;23.296;2022-08-26T05:07:39;17.58;;;5.97;;
21868;SDS011;11099;41.564;23.296;2022-08-26T05:10:05;25.67;;;6.90;;
21868;SDS011;11099;41.564;23.296;2022-08-26T05:12:31;23.55;;;6.45;;
21868;SDS011;11099;41.564;23.296;2022-08-26T05:14:57;19.95;;;7.07;;
21868;SDS011;11099;41.564;23.296;2022-08-26T05:17:23;13.77;;;6.18;;
21868;SDS011;11099;41.564;23.296;2022-08-26T05:19:51;20.42;;;6.55;;
21868;SDS011;11099;41.564;23.296;2022-08-26T05:22:17;17.38;;;6.72;;
21868;SDS011;11099;41.564;23.296;2022-08-26T05:24:44;25.20;;;7.20;;
21868;SDS011;11099;41.564;23.296;2022-08-26T05:27:10;27.00;;;6.85;;
21868;SDS011;11099;41.564;23.296;2022-08-26T05:29:37;23.42;;;7.00;;
21868;SDS011;11099;41.564;23.296;2022-08-26T05:32:03;17.70;;;6.47;;
21868;SDS011;11099;41.564;23.296;2022-08-26T05:34:29;30.77;;;7.55;;
21868;SDS011;11099;41.564;23.296;2022-08-26T05:36:54;21.08;;;7.00;;
21868;SDS011;11099;41.564;23.296;2022-08-26T05:39:20;17.10;;;7.38;;
21868;SDS011;11099;41.564;23.296;2022-08-26T05:41:47;25.30;;;7.03;;
21868;SDS011;11099;41.564;23.296;2022-08-26T05:44:13;25.65;;;7.28;;
21868;SDS011;11099;41.564;23.296;2022-08-26T05:46:43;26.42;;;6.70;;
21868;SDS011;11099;41.564;23.296;2022-08-26T05:49:10;27.27;;;7.63;;
21868;SDS011;11099;41.564;23.296;2022-08-26T05:51:37;20.00;;;6.60;;
21868;SDS011;11099;41.564;23.296;2022-08-26T05:54:02;25.92;;;7.68;;
21868;SDS011;11099;41.564;23.296;2022-08-26T05:56:30;24.97;;;6.63;;
21868;SDS011;11099;41.564;23.296;2022-08-26T05:58:57;22.90;;;8.38;;
21868;SDS011;11099;41.564;23.296;2022-08-26T06:01:23;18.33;;;6.28;;
21868;SDS011;11099;41.564;23.296;2022-08-26T06:03:51;25.13;;;6.53;;
21868;SDS011;11099;41.564;23.296;2022-08-26T06:06:21;27.92;;;6.75;;
21868;SDS011;11099;41.564;23.296;2022-08-26T06:08:49;25.80;;;5.80;;
21868;SDS011;11099;41.564;23.296;2022-08-26T06:11:16;26.20;;;6.35;;
21868;SDS011;11099;41.564;23.296;2022-08-26T06:13:44;24.23;;;6.22;;
21868;SDS011;11099;41.564;23.296;2022-08-26T06:16:12;29.92;;;5.85;;
21868;SDS011;11099;41.564;23.296;2022-08-26T06:18:40;15.60;;;5.22;;
21868;SDS011;11099;41.564;23.296;2022-08-26T06:21:14;22.15;;;5.75;;
21868;SDS011;11099;41.564;23.296;2022-08-26T06:23:40;20.13;;;6.22;;
21868;SDS011;11099;41.564;23.296;2022-08-26T06:26:25;19.00;;;5.80;;
21868;SDS011;11099;41.564;23.296;2022-08-26T06:28:51;19.05;;;5.80;;
21868;SDS011;11099;41.564;23.296;2022-08-26T06:31:16;29.58;;;5.88;;
21868;SDS011;11099;41.564;23.296;2022-08-26T06:33:42;25.38;;;5.75;;
21868;SDS011;11099;41.564;23.296;2022-08-26T06:36:13;23.77;;;5.30;;
21868;SDS011;11099;41.564;23.296;2022-08-26T06:38:45;25.95;;;6.15;;
21868;SDS011;11099;41.564;23.296;2022-08-26T06:41:12;23.63;;;5.60;;
21868;SDS011;11099;41.564;23.296;2022-08-26T06:43:39;25.02;;;5.40;;
21868;SDS011;11099;41.564;23.296;2022-08-26T06:46:07;21.00;;;4.97;;
21868;SDS011;11099;41.564;23.296;2022-08-26T06:48:35;26.65;;;5.40;;
21868;SDS011;11099;41.564;23.296;2022-08-26T06:51:04;29.05;;;5.20;;
21868;SDS011;11099;41.564;23.296;2022-08-26T06:53:34;31.50;;;5.50;;
21868;SDS011;11099;41.564;23.296;2022-08-26T06:56:01;23.92;;;5.50;;
21868;SDS011;11099;41.564;23.296;2022-08-26T07:00:56;22.63;;;5.10;;
21868;SDS011;11099;41.564;23.296;2022-08-26T07:03:21;26.73;;;5.25;;
21868;SDS011;11099;41.564;23.296;2022-08-26T07:05:47;22.98;;;5.32;;
21868;SDS011;11099;41.564;23.296;2022-08-26T07:08:13;26.17;;;5.07;;
21868;SDS011;11099;41.564;23.296;2022-08-26T07:10:40;25.27;;;4.70;;
21868;SDS011;11099;41.564;23.296;2022-08-26T07:13:06;33.00;;;5.78;;
21868;SDS011;11099;41.564;23.296;2022-08-26T07:15:32;19.92;;;5.32;;
21868;SDS011;11099;41.564;23.296;2022-08-26T07:18:00;21.48;;;5.28;;
21868;SDS011;11099;41.564;23.296;2022-08-26T07:20:27;18.65;;;5.00;;
21868;SDS011;11099;41.564;23.296;2022-08-26T07:22:54;15.95;;;4.45;;
21868;SDS011;11099;41.564;23.296;2022-08-26T07:25:24;28.67;;;6.65;;
21868;SDS011;11099;41.564;23.296;2022-08-26T07:27:52;19.63;;;5.03;;
21868;SDS011;11099;41.564;23.296;2022-08-26T07:30:17;24.25;;;5.05;;
21868;SDS011;11099;41.564;23.296;2022-08-26T07:32:43;29.77;;;5.28;;
21868;SDS011;11099;41.564;23.296;2022-08-26T07:35:08;21.30;;;5.32;;
21868;SDS011;11099;41.564;23.296;2022-08-26T07:37:34;24.10;;;5.10;;
21868;SDS011;11099;41.564;23.296;2022-08-26T07:39:59;27.02;;;5.68;;
21868;SDS011;11099;41.564;23.296;2022-08-26T07:42:25;28.33;;;5.25;;
21868;SDS011;11099;41.564;23.296;2022-08-26T07:44:51;18.25;;;4.80;;
21868;SDS011;11099;41.564;23.296;2022-08-26T07:47:16;24.55;;;5.00;;
21868;SDS011;11099;41.564;23.296;2022-08-26T07:49:42;24.90;;;5.40;;
21868;SDS011;11099;41.564;23.296;2022-08-26T07:52:08;26.88;;;4.78;;
21868;SDS011;11099;41.564;23.296;2022-08-26T07:54:34;29.98;;;5.38;;
21868;SDS011;11099;41.564;23.296;2022-08-26T07:57:02;25.50;;;5.00;;
21868;SDS011;11099;41.564;23.296;2022-08-26T07:59:28;24.02;;;5.10;;
21868;SDS011;11099;41.564;23.296;2022-08-26T08:01:54;18.67;;;4.82;;
21868;SDS011;11099;41.564;23.296;2022-08-26T08:04:21;27.48;;;5.15;;
21868;SDS011;11099;41.564;23.296;2022-08-26T08:06:47;16.85;;;4.75;;
21868;SDS011;11099;41.564;23.296;2022-08-26T08:09:13;24.13;;;5.18;;
21868;SDS011;11099;41.564;23.296;2022-08-26T08:11:39;28.80;;;4.97;;
21868;SDS011;11099;41.564;23.296;2022-08-26T08:14:06;22.80;;;4.70;;
21868;SDS011;11099;41.564;23.296;2022-08-26T08:16:33;18.85;;;4.45;;
21868;SDS011;11099;41.564;23.296;2022-08-26T08:22:16;18.55;;;4.38;;
21868;SDS011;11099;41.564;23.296;2022-08-26T08:24:43;28.92;;;4.68;;
21868;SDS011;11099;41.564;23.296;2022-08-26T08:27:11;25.25;;;5.45;;
21868;SDS011;11099;41.564;23.296;2022-08-26T08:29:36;27.63;;;4.65;;
21868;SDS011;11099;41.564;23.296;2022-08-26T08:32:02;26.00;;;4.63;;
21868;SDS011;11099;41.564;23.296;2022-08-26T08:34:28;20.20;;;4.60;;
21868;SDS011;11099;41.564;23.296;2022-08-26T08:36:55;31.27;;;5.35;;
21868;SDS011;11099;41.564;23.296;2022-08-26T08:39:21;23.13;;;4.57;;
21868;SDS011;11099;41.564;23.296;2022-08-26T08:41:51;18.45;;;5.10;;
21868;SDS011;11099;41.564;23.296;2022-08-26T08:44:22;25.27;;;5.40;;
21868;SDS011;11099;41.564;23.296;2022-08-26T08:46:50;18.20;;;4.25;;
21868;SDS011;11099;41.564;23.296;2022-08-26T08:49:18;19.45;;;4.68;;
21868;SDS011;11099;41.564;23.296;2022-08-26T08:54:20;20.27;;;4.78;;
21868;SDS011;11099;41.564;23.296;2022-08-26T08:59:24;19.00;;;4.40;;
21868;SDS011;11099;41.564;23.296;2022-08-26T09:07:22;20.30;;;4.60;;
21868;SDS011;11099;41.564;23.296;2022-08-26T09:09:55;15.70;;;4.22;;
21868;SDS011;11099;41.564;23.296;2022-08-26T09:12:25;25.10;;;4.68;;
21868;SDS011;11099;41.564;23.296;2022-08-26T09:15:03;24.52;;;4.55;;
21868;SDS011;11099;41.564;23.296;2022-08-26T09:23:12;16.42;;;4.55;;
21868;SDS011;11099;41.564;23.296;2022-08-26T09:26:13;20.30;;;4.35;;
21868;SDS011;11099;41.564;23.296;2022-08-26T09:28:53;20.95;;;4.50;;
21868;SDS011;11099;41.564;23.296;2022-08-26T09:31:28;22.75;;;5.15;;
21868;SDS011;11099;41.564;23.296;2022-08-26T09:36:52;29.27;;;4.97;;
21868;SDS011;11099;41.564;23.296;2022-08-26T09:44:35;15.15;;;4.20;;
21868;SDS011;11099;41.564;23.296;2022-08-26T09:47:19;21.33;;;5.13;;
21868;SDS011;11099;41.564;23.296;2022-08-26T09:50:17;20.52;;;5.00;;
21868;SDS011;11099;41.564;23.296;2022-08-26T09:55:42;24.23;;;5.53;;
21868;SDS011;11099;41.564;23.296;2022-08-26T09:58:36;22.33;;;5.10;;
21868;SDS011;11099;41.564;23.296;2022-08-26T10:01:02;23.48;;;4.78;;
21868;SDS011;11099;41.564;23.296;2022-08-26T10:03:31;27.77;;;4.70;;
21868;SDS011;11099;41.564;23.296;2022-08-26T10:06:03;23.77;;;4.72;;
21868;SDS011;11099;41.564;23.296;2022-08-26T10:08:38;25.08;;;4.57;;
21868;SDS011;11099;41.564;23.296;2022-08-26T10:11:49;23.85;;;4.88;;
21868;SDS011;11099;41.564;23.296;2022-08-26T10:14:01;17.85;;;4.55;;
21868;SDS011;11099;41.564;23.296;2022-08-26T10:19:24;23.23;;;4.18;;
21868;SDS011;11099;41.564;23.296;2022-08-26T10:22:01;30.77;;;4.15;;
21868;SDS011;11099;41.564;23.296;2022-08-26T10:24:46;22.77;;;4.47;;
21868;SDS011;11099;41.564;23.296;2022-08-26T10:30:14;22.08;;;4.10;;
21868;SDS011;11099;41.564;23.296;2022-08-26T10:33:01;23.15;;;4.72;;
21868;SDS011;11099;41.564;23.296;2022-08-26T10:35:30;19.23;;;4.68;;
21868;SDS011;11099;41.564;23.296;2022-08-26T10:38:00;18.40;;;4.32;;
21868;SDS011;11099;41.564;23.296;2022-08-26T10:46:04;20.42;;;4.95;;
21868;SDS011;11099;41.564;23.296;2022-08-26T10:51:12;28.42;;;4.95;;
21868;SDS011;11099;41.564;23.296;2022-08-26T10:53:44;21.75;;;4.88;;
21868;SDS011;11099;41.564;23.296;2022-08-26T10:56:17;21.10;;;5.05;;
21868;SDS011;11099;41.564;23.296;2022-08-26T11:01:41;19.98;;;4.63;;
21868;SDS011;11099;41.564;23.296;2022-08-26T11:09:56;25.25;;;4.63;;
21868;SDS011;11099;41.564;23.296;2022-08-26T11:15:04;21.48;;;4.90;;
21868;SDS011;11099;41.564;23.296;2022-08-26T11:20:15;26.00;;;5.22;;
21868;SDS011;11099;41.564;23.296;2022-08-26T11:26:11;23.83;;;4.50;;
21868;SDS011;11099;41.564;23.296;2022-08-26T11:31:10;15.63;;;4.00;;
21868;SDS011;11099;41.564;23.296;2022-08-26T11:34:00;28.75;;;4.57;;
21868;SDS011;11099;41.564;23.296;2022-08-26T11:41:47;19.10;;;4.97;;
21868;SDS011;11099;41.564;23.296;2022-08-26T11:44:44;15.65;;;4.55;;
21868;SDS011;11099;41.564;23.296;2022-08-26T11:47:14;16.92;;;3.92;;
21868;SDS011;11099;41.564;23.296;2022-08-26T11:49:48;24.52;;;4.82;;
21868;SDS011;11099;41.564;23.296;2022-08-26T11:52:19;22.98;;;5.13;;
21868;SDS011;11099;41.564;23.296;2022-08-26T11:54:59;24.42;;;4.97;;
21868;SDS011;11099;41.564;23.296;2022-08-26T11:57:34;19.90;;;5.10;;
21868;SDS011;11099;41.564;23.296;2022-08-26T12:00:07;19.30;;;4.38;;
21868;SDS011;11099;41.564;23.296;2022-08-26T12:02:38;19.67;;;4.53;;
21868;SDS011;11099;41.564;23.296;2022-08-26T12:05:05;18.40;;;4.18;;
21868;SDS011;11099;41.564;23.296;2022-08-26T12:07:32;22.38;;;4.32;;
21868;SDS011;11099;41.564;23.296;2022-08-26T12:10:00;21.75;;;4.43;;
21868;SDS011;11099;41.564;23.296;2022-08-26T12:12:32;24.80;;;4.65;;
21868;SDS011;11099;41.564;23.296;2022-08-26T12:15:08;24.58;;;4.70;;
21868;SDS011;11099;41.564;23.296;2022-08-26T12:17:38;19.45;;;4.40;;
21868;SDS011;11099;41.564;23.296;2022-08-26T12:20:15;21.03;;;4.13;;
21868;SDS011;11099;41.564;23.296;2022-08-26T12:26:08;27.83;;;4.70;;
21868;SDS011;11099;41.564;23.296;2022-08-26T12:28:43;20.48;;;4.30;;
21868;SDS011;11099;41.564;23.296;2022-08-26T12:31:35;26.15;;;4.70;;
21868;SDS011;11099;41.564;23.296;2022-08-26T12:34:04;20.45;;;4.93;;
21868;SDS011;11099;41.564;23.296;2022-08-26T12:36:41;17.35;;;4.25;;
21868;SDS011;11099;41.564;23.296;2022-08-26T12:39:23;21.95;;;4.68;;
21868;SDS011;11099;41.564;23.296;2022-08-26T12:41:52;29.42;;;5.45;;
21868;SDS011;11099;41.564;23.296;2022-08-26T12:44:35;20.23;;;4.45;;
21868;SDS011;11099;41.564;23.296;2022-08-26T12:50:00;17.40;;;4.90;;
21868;SDS011;11099;41.564;23.296;2022-08-26T12:55:03;23.48;;;5.15;;
21868;SDS011;11099;41.564;23.296;2022-08-26T12:57:36;27.13;;;5.15;;
21868;SDS011;11099;41.564;23.296;2022-08-26T13:03:01;21.40;;;5.15;;
21868;SDS011;11099;41.564;23.296;2022-08-26T13:05:31;27.48;;;4.72;;
21868;SDS011;11099;41.564;23.296;2022-08-26T13:11:08;25.08;;;4.80;;
21868;SDS011;11099;41.564;23.296;2022-08-26T13:13:44;15.10;;;4.70;;
21868;SDS011;11099;41.564;23.296;2022-08-26T13:16:11;16.55;;;3.75;;
21868;SDS011;11099;41.564;23.296;2022-08-26T13:18:38;27.67;;;4.30;;
21868;SDS011;11099;41.564;23.296;2022-08-26T13:21:09;21.90;;;4.30;;
21868;SDS011;11099;41.564;23.296;2022-08-26T13:23:38;18.60;;;4.22;;
21868;SDS011;11099;41.564;23.296;2022-08-26T13:26:04;21.10;;;4.18;;
21868;SDS011;11099;41.564;23.296;2022-08-26T13:28:30;19.33;;;4.22;;
21868;SDS011;11099;41.564;23.296;2022-08-26T13:30:55;23.90;;;4.10;;
21868;SDS011;11099;41.564;23.296;2022-08-26T13:33:26;20.27;;;4.90;;
21868;SDS011;11099;41.564;23.296;2022-08-26T13:35:52;23.60;;;4.38;;
21868;SDS011;11099;41.564;23.296;2022-08-26T13:38:20;15.70;;;4.10;;
21868;SDS011;11099;41.564;23.296;2022-08-26T13:40:52;22.58;;;4.03;;
21868;SDS011;11099;41.564;23.296;2022-08-26T13:43:17;20.80;;;4.20;;
21868;SDS011;11099;41.564;23.296;2022-08-26T13:45:43;12.73;;;3.72;;
21868;SDS011;11099;41.564;23.296;2022-08-26T13:48:09;15.98;;;4.22;;
21868;SDS011;11099;41.564;23.296;2022-08-26T13:50:34;30.63;;;4.22;;
21868;SDS011;11099;41.564;23.296;2022-08-26T13:53:00;26.67;;;4.78;;
21868;SDS011;11099;41.564;23.296;2022-08-26T13:55:26;20.58;;;4.20;;
21868;SDS011;11099;41.564;23.296;2022-08-26T13:57:53;22.05;;;4.43;;
21868;SDS011;11099;41.564;23.296;2022-08-26T14:00:20;28.75;;;4.03;;
21868;SDS011;11099;41.564;23.296;2022-08-26T14:02:46;17.65;;;3.78;;
21868;SDS011;11099;41.564;23.296;2022-08-26T14:05:12;16.08;;;4.13;;
21868;SDS011;11099;41.564;23.296;2022-08-26T14:07:50;16.17;;;4.13;;
21868;SDS011;11099;41.564;23.296;2022-08-26T14:10:16;19.00;;;3.97;;
21868;SDS011;11099;41.564;23.296;2022-08-26T14:12:43;22.08;;;4.30;;
21868;SDS011;11099;41.564;23.296;2022-08-26T14:15:10;14.27;;;3.88;;
21868;SDS011;11099;41.564;23.296;2022-08-26T14:17:40;10.10;;;4.07;;
21868;SDS011;11099;41.564;23.296;2022-08-26T14:20:08;16.67;;;4.03;;
21868;SDS011;11099;41.564;23.296;2022-08-26T14:22:42;8.80;;;4.13;;
21868;SDS011;11099;41.564;23.296;2022-08-26T14:25:12;24.02;;;4.32;;
21868;SDS011;11099;41.564;23.296;2022-08-26T14:27:39;23.58;;;5.00;;
21868;SDS011;11099;41.564;23.296;2022-08-26T14:30:07;21.13;;;4.15;;
21868;SDS011;11099;41.564;23.296;2022-08-26T14:32:33;12.45;;;3.97;;
21868;SDS011;11099;41.564;23.296;2022-08-26T14:35:00;12.02;;;3.97;;
21868;SDS011;11099;41.564;23.296;2022-08-26T14:37:26;16.08;;;4.28;;
21868;SDS011;11099;41.564;23.296;2022-08-26T14:39:51;17.20;;;4.15;;
21868;SDS011;11099;41.564;23.296;2022-08-26T14:42:19;16.20;;;4.15;;
21868;SDS011;11099;41.564;23.296;2022-08-26T14:44:49;24.15;;;5.20;;
21868;SDS011;11099;41.564;23.296;2022-08-26T14:47:19;15.55;;;4.35;;
21868;SDS011;11099;41.564;23.296;2022-08-26T14:49:45;15.48;;;4.72;;
21868;SDS011;11099;41.564;23.296;2022-08-26T14:52:10;20.33;;;4.90;;
21868;SDS011;11099;41.564;23.296;2022-08-26T14:54:36;13.93;;;4.10;;
21868;SDS011;11099;41.564;23.296;2022-08-26T14:57:03;18.30;;;4.63;;
21868;SDS011;11099;41.564;23.296;2022-08-26T14:59:35;10.93;;;3.92;;
21868;SDS011;11099;41.564;23.296;2022-08-26T15:02:04;18.58;;;4.57;;
21868;SDS011;11099;41.564;23.296;2022-08-26T15:04:31;12.68;;;4.30;;
21868;SDS011;11099;41.564;23.296;2022-08-26T15:06:58;16.85;;;4.75;;
21868;SDS011;11099;41.564;23.296;2022-08-26T15:09:25;26.48;;;4.53;;
21868;SDS011;11099;41.564;23.296;2022-08-26T15:11:53;12.55;;;4.10;;
21868;SDS011;11099;41.564;23.296;2022-08-26T15:14:20;15.45;;;4.45;;
21868;SDS011;11099;41.564;23.296;2022-08-26T15:16:47;25.52;;;4.30;;
21868;SDS011;11099;41.564;23.296;2022-08-26T15:19:17;21.30;;;4.38;;
21868;SDS011;11099;41.564;23.296;2022-08-26T15:21:44;16.35;;;3.97;;
21868;SDS011;11099;41.564;23.296;2022-08-26T15:24:11;19.67;;;4.38;;
21868;SDS011;11099;41.564;23.296;2022-08-26T15:26:39;15.02;;;4.15;;
21868;SDS011;11099;41.564;23.296;2022-08-26T15:29:05;14.85;;;4.38;;
21868;SDS011;11099;41.564;23.296;2022-08-26T15:31:31;26.33;;;5.40;;
21868;SDS011;11099;41.564;23.296;2022-08-26T15:33:59;20.05;;;4.50;;
21868;SDS011;11099;41.564;23.296;2022-08-26T15:36:29;14.82;;;4.30;;
21868;SDS011;11099;41.564;23.296;2022-08-26T15:38:57;20.60;;;5.15;;
21868;SDS011;11099;41.564;23.296;2022-08-26T15:41:24;20.42;;;4.70;;
21868;SDS011;11099;41.564;23.296;2022-08-26T15:43:50;16.02;;;4.40;;
21868;SDS011;11099;41.564;23.296;2022-08-26T15:46:16;12.65;;;4.70;;
21868;SDS011;11099;41.564;23.296;2022-08-26T15:48:43;16.00;;;4.88;;
21868;SDS011;11099;41.564;23.296;2022-08-26T15:51:52;10.00;;;4.35;;
21868;SDS011;11099;41.564;23.296;2022-08-26T15:54:03;13.73;;;3.90;;
21868;SDS011;11099;41.564;23.296;2022-08-26T15:56:30;14.80;;;4.18;;
21868;SDS011;11099;41.564;23.296;2022-08-26T15:58:58;22.67;;;4.88;;
21868;SDS011;11099;41.564;23.296;2022-08-26T16:01:25;17.58;;;4.53;;
21868;SDS011;11099;41.564;23.296;2022-08-26T16:03:51;11.93;;;4.20;;